createdAt,value
2022-11-13T00:00:45.390Z,7.23
2022-11-13T00:03:32.157Z,7.17
2022-11-13T00:06:20.221Z,7.19
2022-11-13T00:09:06.965Z,7.16
2022-11-13T00:11:55.440Z,7.11
2022-11-13T00:14:43.677Z,7.09
2022-11-13T00:17:30.508Z,7.07
2022-11-13T00:20:17.298Z,6.99
2022-11-13T00:23:04.178Z,6.97
2022-11-13T00:25:53.543Z,6.93
2022-11-13T00:28:40.598Z,6.93
2022-11-13T00:31:29.566Z,7.04
2022-11-13T00:37:22.760Z,7.24
2022-11-13T00:40:10.785Z,7.31
2022-11-13T00:42:59.824Z,7.12
2022-11-13T00:45:46.792Z,7.05
2022-11-13T00:48:35.732Z,7.08
2022-11-13T00:51:22.680Z,7.07
2022-11-13T00:54:09.323Z,7.20
2022-11-13T00:56:55.932Z,7.54
2022-11-13T00:59:42.384Z,7.69
2022-11-13T01:02:29.036Z,7.98
2022-11-13T01:05:16.986Z,7.98
2022-11-13T01:08:03.412Z,7.91
2022-11-13T01:10:53.632Z,7.72
2022-11-13T01:13:42.013Z,7.48
2022-11-13T01:16:29.358Z,7.31
2022-11-13T01:19:15.806Z,7.15
2022-11-13T01:22:04.763Z,7.07
2022-11-13T01:24:51.505Z,7.02
2022-11-13T01:27:38.901Z,6.96
2022-11-13T01:30:25.812Z,6.96
2022-11-13T01:33:12.748Z,6.94
2022-11-13T01:36:02.149Z,6.94
2022-11-13T01:38:50.792Z,6.90
2022-11-13T01:41:37.367Z,6.79
2022-11-13T01:44:24.425Z,6.81
2022-11-13T01:47:11.317Z,6.81
2022-11-13T01:50:00.220Z,6.68
2022-11-13T01:52:49.734Z,6.63
2022-11-13T01:55:38.470Z,6.58
2022-11-13T01:58:25.470Z,6.50
2022-11-13T02:01:12.346Z,6.49
2022-11-13T02:04:01.654Z,6.44
2022-11-13T02:06:53.195Z,6.36
2022-11-13T02:09:42.524Z,6.28
2022-11-13T02:12:36.639Z,6.19
2022-11-13T02:15:26.791Z,6.12
2022-11-13T02:18:15.780Z,6.10
2022-11-13T02:21:11.451Z,6.08
2022-11-13T02:24:04.881Z,6.00
2022-11-13T02:26:55.102Z,5.99
2022-11-13T02:29:42.073Z,6.04
2022-11-13T02:32:28.522Z,6.00
2022-11-13T02:35:18.666Z,5.98
2022-11-13T02:38:07.272Z,5.97
2022-11-13T02:40:54.215Z,5.95
2022-11-13T02:43:42.265Z,5.91
2022-11-13T02:46:28.876Z,5.93
2022-11-13T02:49:15.717Z,5.90
2022-11-13T02:52:02.650Z,5.86
2022-11-13T02:54:49.454Z,5.86
2022-11-13T02:57:36.217Z,5.81
2022-11-13T03:00:24.693Z,5.81
2022-11-13T03:03:11.402Z,5.86
2022-11-13T03:05:58.270Z,6.01
2022-11-13T03:08:44.872Z,6.13
2022-11-13T03:11:31.523Z,6.08
2022-11-13T03:14:18.450Z,6.06
2022-11-13T03:17:07.077Z,6.00
2022-11-13T03:19:53.902Z,5.96
2022-11-13T03:22:40.653Z,5.86
2022-11-13T03:25:27.476Z,5.79
2022-11-13T03:28:14.249Z,5.74
2022-11-13T03:31:01.359Z,5.75
2022-11-13T03:33:49.531Z,5.79
2022-11-13T03:36:36.374Z,5.80
2022-11-13T03:39:23.016Z,5.76
2022-11-13T03:42:09.656Z,5.71
2022-11-13T03:44:56.620Z,5.65
2022-11-13T03:47:43.845Z,5.62
2022-11-13T03:50:31.870Z,5.59
2022-11-13T03:53:18.388Z,5.56
2022-11-13T03:56:05.386Z,5.52
2022-11-13T03:58:52.086Z,5.48
2022-11-13T04:01:38.987Z,5.45
2022-11-13T04:04:32.137Z,5.43
2022-11-13T04:07:20.216Z,5.36
2022-11-13T04:10:09.725Z,5.32
2022-11-13T04:12:56.504Z,5.26
2022-11-13T04:15:43.557Z,5.24
2022-11-13T04:18:30.214Z,5.21
2022-11-13T04:21:17.321Z,5.19
2022-11-13T04:24:06.132Z,5.16
2022-11-13T04:26:52.656Z,5.10
2022-11-13T04:29:39.509Z,5.04
2022-11-13T04:32:26.472Z,5.02
2022-11-13T04:35:13.482Z,5.05
2022-11-13T04:38:00.093Z,5.00
2022-11-13T04:40:50.917Z,4.98
2022-11-13T04:43:36.751Z,4.94
2022-11-13T04:46:23.617Z,5.00
2022-11-13T04:49:10.564Z,4.98
2022-11-13T04:51:57.489Z,5.03
2022-11-13T04:54:43.942Z,5.12
2022-11-13T04:57:32.156Z,5.15
2022-11-13T05:00:19.160Z,5.22
2022-11-13T05:03:05.835Z,5.28
2022-11-13T05:05:52.720Z,5.30
2022-11-13T05:08:39.706Z,5.23
2022-11-13T05:11:26.350Z,5.21
2022-11-13T05:14:14.908Z,5.26
2022-11-13T05:17:01.699Z,5.28
2022-11-13T05:19:48.573Z,5.30
2022-11-13T05:22:35.353Z,5.26
2022-11-13T05:25:22.133Z,5.31
2022-11-13T05:28:09.065Z,5.31
2022-11-13T05:31:04.522Z,5.40
2022-11-13T05:33:51.195Z,5.45
2022-11-13T05:36:38.088Z,5.47
2022-11-13T05:39:24.763Z,5.42
2022-11-13T05:42:11.431Z,5.36
2022-11-13T05:44:58.293Z,5.37
2022-11-13T05:47:46.446Z,5.36
2022-11-13T05:50:33.080Z,5.31
2022-11-13T05:53:19.606Z,5.23
2022-11-13T05:56:09.195Z,5.24
2022-11-13T05:58:57.274Z,5.31
2022-11-13T06:01:43.981Z,5.37
2022-11-13T06:04:32.294Z,5.31
2022-11-13T06:07:18.930Z,5.30
2022-11-13T06:10:06.373Z,5.34
2022-11-13T06:12:53.163Z,5.56
2022-11-13T06:15:39.772Z,5.80
2022-11-13T06:18:26.974Z,5.90
2022-11-13T06:21:17.889Z,5.90
2022-11-13T06:24:04.694Z,5.90
2022-11-13T06:26:51.219Z,6.06
2022-11-13T06:29:37.982Z,6.01
2022-11-13T06:32:24.849Z,5.97
2022-11-13T06:35:11.731Z,5.86
2022-11-13T06:37:59.585Z,5.70
2022-11-13T06:40:46.156Z,5.63
2022-11-13T06:43:33.875Z,5.47
2022-11-13T06:46:22.302Z,5.37
2022-11-13T06:49:11.326Z,5.28
2022-11-13T06:51:58.101Z,5.25
2022-11-13T06:54:46.145Z,5.32
2022-11-13T06:57:32.750Z,5.46
2022-11-13T07:00:19.983Z,5.52
2022-11-13T07:03:06.579Z,5.47
2022-11-13T07:05:53.762Z,5.41
2022-11-13T07:08:41.110Z,5.39
2022-11-13T07:11:29.280Z,5.48
2022-11-13T07:14:16.013Z,5.62
2022-11-13T07:17:09.736Z,5.69
2022-11-13T07:19:57.024Z,5.72
2022-11-13T07:22:43.712Z,5.80
2022-11-13T07:25:31.494Z,5.89
2022-11-13T07:28:19.463Z,5.94
2022-11-13T07:31:06.711Z,5.94
2022-11-13T07:33:53.291Z,5.85
2022-11-13T07:36:40.016Z,5.80
2022-11-13T07:39:26.972Z,5.74
2022-11-13T07:42:14.043Z,5.76
2022-11-13T07:45:02.179Z,5.72
2022-11-13T07:47:48.702Z,5.65
2022-11-13T07:50:37.597Z,5.66
2022-11-13T07:53:24.624Z,5.70
2022-11-13T07:56:11.013Z,5.63
2022-11-13T07:58:57.996Z,5.67
2022-11-13T08:01:46.244Z,5.69
2022-11-13T08:04:33.154Z,5.79
2022-11-13T08:07:19.815Z,5.84
2022-11-13T08:10:07.573Z,5.89
2022-11-13T08:13:00.944Z,5.96
2022-11-13T08:15:49.963Z,6.01
2022-11-13T08:18:38.188Z,6.11
2022-11-13T08:21:25.665Z,6.16
2022-11-13T08:24:12.503Z,6.22
2022-11-13T08:26:59.359Z,6.25
2022-11-13T08:29:45.989Z,6.24
2022-11-13T08:32:32.555Z,6.31
2022-11-13T08:35:26.605Z,6.43
2022-11-13T08:38:15.977Z,6.44
2022-11-13T08:41:09.015Z,6.55
2022-11-13T08:43:56.570Z,6.69
2022-11-13T08:46:43.204Z,6.61
2022-11-13T08:49:30.210Z,6.80
2022-11-13T08:52:18.416Z,6.86
2022-11-13T08:55:05.600Z,7.00
2022-11-13T08:57:52.344Z,7.07
2022-11-13T09:00:39.299Z,7.20
2022-11-13T09:03:26.160Z,7.30
2022-11-13T09:06:13.125Z,7.44
2022-11-13T09:09:04.192Z,7.55
2022-11-13T09:11:51.529Z,7.61
2022-11-13T09:14:38.289Z,7.75
2022-11-13T09:17:25.310Z,7.86
2022-11-13T09:20:14.068Z,8.01
2022-11-13T09:23:02.817Z,8.15
2022-11-13T09:25:51.217Z,8.26
2022-11-13T09:28:38.635Z,8.39
2022-11-13T09:31:25.475Z,8.52
2022-11-13T09:34:12.437Z,8.67
2022-11-13T09:36:59.307Z,8.89
2022-11-13T09:39:45.898Z,9.04
2022-11-13T09:42:35.640Z,9.17
2022-11-13T09:45:22.591Z,9.22
2022-11-13T09:48:20.277Z,9.33
2022-11-13T09:51:13.880Z,9.53
2022-11-13T09:54:06.966Z,9.70
2022-11-13T09:57:02.277Z,9.83
2022-11-13T09:59:55.914Z,9.79
2022-11-13T10:02:53.560Z,9.79
2022-11-13T10:05:46.714Z,9.74
2022-11-13T10:08:50.013Z,9.70
2022-11-13T10:11:42.427Z,9.71
2022-11-13T10:14:33.764Z,9.78
2022-11-13T10:17:26.091Z,9.89
2022-11-13T10:20:16.776Z,10.01
2022-11-13T10:23:10.216Z,10.22
2022-11-13T10:25:58.476Z,10.43
2022-11-13T10:28:51.187Z,10.50
2022-11-13T10:31:46.361Z,10.64
2022-11-13T10:34:34.715Z,10.60
2022-11-13T10:37:44.977Z,10.55
2022-11-13T10:40:34.889Z,10.50
2022-11-13T10:43:24.141Z,10.36
2022-11-13T10:46:21.606Z,10.26
2022-11-13T10:49:13.849Z,10.33
2022-11-13T10:52:02.593Z,10.27
2022-11-13T10:54:49.768Z,10.28
2022-11-13T10:57:36.400Z,10.48
2022-11-13T11:00:26.633Z,10.63
2022-11-13T11:03:18.024Z,10.71
2022-11-13T11:06:06.725Z,10.68
2022-11-13T11:08:54.990Z,10.69
2022-11-13T11:11:58.922Z,10.77
2022-11-13T11:15:08.521Z,11.10
2022-11-13T11:18:00.521Z,11.30
2022-11-13T11:20:50.983Z,11.19
2022-11-13T11:23:42.571Z,11.20
2022-11-13T11:26:36.864Z,11.20
2022-11-13T11:29:29.692Z,11.37
2022-11-13T11:32:21.970Z,11.41
2022-11-13T11:35:15.756Z,11.46
2022-11-13T11:38:06.745Z,11.60
2022-11-13T11:40:56.860Z,11.75
2022-11-13T11:43:47.088Z,11.92
2022-11-13T11:46:33.987Z,12.05
2022-11-13T11:49:24.103Z,12.11
2022-11-13T11:52:23.799Z,12.16
2022-11-13T11:55:36.257Z,12.21
2022-11-13T11:58:38.333Z,12.34
2022-11-13T12:01:39.224Z,12.55
2022-11-13T12:04:54.120Z,12.76
2022-11-13T12:07:49.047Z,12.86
2022-11-13T12:10:42.690Z,12.90
2022-11-13T12:13:32.179Z,12.85
2022-11-13T12:16:26.580Z,12.99
2022-11-13T12:19:23.877Z,12.88
2022-11-13T12:22:17.698Z,12.93
2022-11-13T12:25:16.048Z,12.91
2022-11-13T12:28:12.387Z,12.93
2022-11-13T12:31:07.851Z,12.94
2022-11-13T12:34:04.819Z,12.87
2022-11-13T12:36:54.795Z,12.77
2022-11-13T12:39:47.336Z,13.06
2022-11-13T12:42:37.079Z,13.38
2022-11-13T12:45:34.168Z,13.65
2022-11-13T12:48:29.845Z,13.79
2022-11-13T12:51:18.850Z,13.85
2022-11-13T12:54:07.021Z,13.98
2022-11-13T12:56:54.033Z,14.03
2022-11-13T12:59:43.157Z,13.98
2022-11-13T13:02:46.555Z,13.98
2022-11-13T13:05:53.745Z,14.00
2022-11-13T13:08:54.773Z,13.83
2022-11-13T13:11:54.432Z,13.75
2022-11-13T13:15:11.426Z,13.63
2022-11-13T13:18:06.640Z,13.60
2022-11-13T13:21:01.888Z,13.38
2022-11-13T13:23:50.703Z,13.47
2022-11-13T13:26:48.095Z,13.54
2022-11-13T13:29:35.378Z,13.52
2022-11-13T13:32:27.416Z,13.47
2022-11-13T13:35:18.842Z,13.47
2022-11-13T13:38:16.344Z,13.39
2022-11-13T13:41:18.406Z,13.38
2022-11-13T13:44:46.486Z,13.29
2022-11-13T13:47:38.978Z,13.23
2022-11-13T13:50:28.442Z,13.23
2022-11-13T13:53:23.427Z,13.22
2022-11-13T13:56:13.174Z,13.16
2022-11-13T13:59:00.877Z,13.09
2022-11-13T14:01:58.419Z,12.91
2022-11-13T14:04:47.590Z,12.88
2022-11-13T14:07:35.829Z,12.78
2022-11-13T14:10:24.918Z,12.73
2022-11-13T14:13:14.123Z,12.70
2022-11-13T14:16:04.824Z,12.61
2022-11-13T14:18:52.774Z,12.72
2022-11-13T14:21:39.379Z,12.69
2022-11-13T14:24:33.810Z,12.50
2022-11-13T14:27:25.581Z,12.35
2022-11-13T14:30:25.347Z,12.21
2022-11-13T14:33:16.098Z,12.14
2022-11-13T14:36:05.280Z,12.06
2022-11-13T14:38:52.607Z,11.94
2022-11-13T14:41:42.070Z,11.82
2022-11-13T14:44:32.633Z,11.70
2022-11-13T14:47:25.489Z,11.62
2022-11-13T14:50:23.774Z,11.52
2022-11-13T14:53:12.302Z,11.48
2022-11-13T14:56:01.427Z,11.54
2022-11-13T14:58:48.574Z,11.54
2022-11-13T15:01:35.575Z,11.48
2022-11-13T15:04:22.503Z,11.51
2022-11-13T15:07:29.620Z,11.53
2022-11-13T15:10:21.473Z,11.40
2022-11-13T15:13:12.994Z,11.46
2022-11-13T15:16:00.092Z,11.57
2022-11-13T15:18:49.810Z,11.69
2022-11-13T15:21:36.932Z,11.70
2022-11-13T15:24:23.972Z,11.71
2022-11-13T15:27:15.031Z,11.76
2022-11-13T15:30:01.559Z,11.77
2022-11-13T15:32:53.740Z,11.71
2022-11-13T15:35:41.493Z,11.63
2022-11-13T15:38:28.355Z,11.49
2022-11-13T15:41:16.874Z,11.40
2022-11-13T15:44:11.493Z,11.36
2022-11-13T15:46:58.311Z,11.28
2022-11-13T15:49:56.637Z,11.20
2022-11-13T15:52:52.620Z,11.10
2022-11-13T15:55:41.229Z,10.96
2022-11-13T15:58:33.354Z,10.78
2022-11-13T16:01:22.932Z,10.62
2022-11-13T16:04:13.026Z,10.41
2022-11-13T16:06:59.966Z,10.26
2022-11-13T16:09:47.457Z,10.07
2022-11-13T16:12:34.469Z,9.88
2022-11-13T16:15:21.676Z,9.68
2022-11-13T16:18:23.677Z,9.53
2022-11-13T16:21:13.187Z,9.35
2022-11-13T16:24:02.443Z,9.23
2022-11-13T16:26:51.132Z,9.18
2022-11-13T16:29:37.928Z,9.10
2022-11-13T16:32:24.681Z,8.95
2022-11-13T16:35:17.367Z,8.85
2022-11-13T16:38:04.509Z,8.66
2022-11-13T16:40:51.483Z,8.53
2022-11-13T16:43:39.123Z,8.45
2022-11-13T16:46:29.313Z,8.41
2022-11-13T16:49:19.408Z,8.39
2022-11-13T16:52:07.660Z,8.37
2022-11-13T16:54:54.593Z,8.37
2022-11-13T16:57:41.712Z,8.39
2022-11-13T17:00:28.298Z,8.42
2022-11-13T17:03:15.071Z,8.39
2022-11-13T17:06:02.175Z,8.55
2022-11-13T17:08:52.196Z,8.71
2022-11-13T17:11:38.927Z,8.82
2022-11-13T17:14:26.005Z,8.94
2022-11-13T17:17:14.478Z,9.01
2022-11-13T17:20:01.366Z,8.87
2022-11-13T17:22:49.326Z,8.85
2022-11-13T17:25:37.243Z,8.88
2022-11-13T17:28:23.741Z,8.82
2022-11-13T17:31:13.063Z,8.88
2022-11-13T17:33:59.745Z,9.05
2022-11-13T17:36:46.368Z,9.27
2022-11-13T17:39:32.972Z,9.45
2022-11-13T17:42:21.242Z,9.60
2022-11-13T17:45:08.896Z,9.67
2022-11-13T17:47:55.779Z,9.75
2022-11-13T17:50:42.736Z,9.85
2022-11-13T17:53:29.660Z,9.78
2022-11-13T17:56:17.723Z,9.75
2022-11-13T17:59:06.090Z,9.75
2022-11-13T18:01:52.839Z,9.79
2022-11-13T18:04:39.820Z,9.78
2022-11-13T18:07:26.692Z,9.75
2022-11-13T18:10:13.508Z,9.65
2022-11-13T18:13:00.400Z,9.55
2022-11-13T18:15:48.531Z,9.50
2022-11-13T18:18:35.338Z,9.45
2022-11-13T18:21:23.942Z,9.35
2022-11-13T18:24:14.474Z,9.32
2022-11-13T18:27:01.889Z,9.27
2022-11-13T18:29:48.509Z,9.19
2022-11-13T18:32:36.706Z,9.17
2022-11-13T18:35:23.383Z,9.09
2022-11-13T18:38:10.289Z,9.06
2022-11-13T18:41:02.028Z,8.97
2022-11-13T18:43:51.175Z,8.86
2022-11-13T18:46:38.314Z,8.68
2022-11-13T18:49:26.554Z,8.58
2022-11-13T18:52:13.427Z,8.42
2022-11-13T18:55:00.067Z,8.27
2022-11-13T18:57:47.194Z,8.11
2022-11-13T19:00:34.111Z,7.98
2022-11-13T19:03:21.237Z,7.85
2022-11-13T19:06:11.592Z,7.73
2022-11-13T19:08:59.961Z,7.67
2022-11-13T19:11:47.057Z,7.55
2022-11-13T19:14:33.893Z,7.45
2022-11-13T19:17:23.257Z,7.39
2022-11-13T19:20:11.328Z,7.34
2022-11-13T19:22:59.506Z,7.27
2022-11-13T19:25:49.429Z,7.22
2022-11-13T19:28:37.029Z,7.15
2022-11-13T19:31:25.638Z,7.11
2022-11-13T19:34:12.824Z,7.05
2022-11-13T19:36:59.895Z,6.95
2022-11-13T19:39:48.210Z,6.88
2022-11-13T19:42:39.306Z,6.86
2022-11-13T19:45:29.587Z,6.88
2022-11-13T19:48:18.902Z,6.86
2022-11-13T19:51:09.682Z,6.78
2022-11-13T19:53:57.789Z,6.81
2022-11-13T19:56:45.912Z,6.74
2022-11-13T19:59:33.349Z,6.68
2022-11-13T20:02:19.955Z,6.68
2022-11-13T20:05:07.334Z,6.70
2022-11-13T20:07:58.357Z,6.56
2022-11-13T20:10:44.908Z,6.49
2022-11-13T20:13:34.542Z,6.42
2022-11-13T20:16:23.596Z,6.38
2022-11-13T20:19:10.785Z,6.30
2022-11-13T20:21:57.604Z,6.22
2022-11-13T20:24:44.692Z,6.20
2022-11-13T20:27:31.281Z,6.12
2022-11-13T20:30:19.468Z,6.08
2022-11-13T20:33:06.366Z,6.08
2022-11-13T20:35:54.911Z,5.99
2022-11-13T20:38:41.816Z,5.95
2022-11-13T20:41:28.451Z,5.89
2022-11-13T20:44:15.889Z,5.84
2022-11-13T20:47:04.381Z,5.80
2022-11-13T20:49:51.197Z,5.78
2022-11-13T20:52:38.428Z,5.71
2022-11-13T20:55:25.526Z,5.66
2022-11-13T20:58:12.465Z,5.56
2022-11-13T21:01:03.813Z,5.52
2022-11-13T21:03:53.117Z,5.52
2022-11-13T21:06:49.926Z,5.52
2022-11-13T21:09:48.827Z,5.49
2022-11-13T21:12:39.931Z,5.40
2022-11-13T21:15:26.745Z,5.41
2022-11-13T21:18:15.090Z,5.34
2022-11-13T21:21:16.105Z,5.34
2022-11-13T21:24:12.132Z,5.31
2022-11-13T21:27:06.724Z,5.30
2022-11-13T21:29:54.070Z,5.24
2022-11-13T21:32:43.074Z,5.23
2022-11-13T21:35:30.278Z,5.24
2022-11-13T21:38:20.517Z,5.20
2022-11-13T21:41:24.740Z,5.23
2022-11-13T21:44:12.276Z,5.19
2022-11-13T21:46:58.893Z,5.13
2022-11-13T21:49:53.787Z,5.13
2022-11-13T21:52:43.057Z,5.12
2022-11-13T21:55:31.760Z,5.10
2022-11-13T21:58:20.677Z,5.07
2022-11-13T22:01:08.803Z,5.04
2022-11-13T22:04:10.784Z,5.04
2022-11-13T22:06:57.958Z,5.04
2022-11-13T22:09:48.465Z,5.01
2022-11-13T22:12:38.157Z,4.94
2022-11-13T22:15:26.365Z,4.91
2022-11-13T22:18:18.465Z,4.88
2022-11-13T22:21:12.842Z,4.86
2022-11-13T22:24:01.308Z,4.81
2022-11-13T22:26:49.654Z,4.76
2022-11-13T22:29:42.133Z,4.67
2022-11-13T22:32:33.236Z,4.62
2022-11-13T22:35:20.007Z,4.58
2022-11-13T22:38:12.387Z,4.54
2022-11-13T22:41:06.394Z,4.51
2022-11-13T22:44:31.678Z,4.50
2022-11-13T22:47:37.890Z,4.45
2022-11-13T22:50:24.776Z,4.41
2022-11-13T22:53:14.670Z,4.35
2022-11-13T22:56:03.087Z,4.30
2022-11-13T22:58:50.751Z,4.32
2022-11-13T23:01:39.700Z,4.29
2022-11-13T23:04:27.894Z,4.24
2022-11-13T23:07:15.016Z,4.23
2022-11-13T23:10:02.213Z,4.18
2022-11-13T23:12:49.073Z,4.23
2022-11-13T23:15:35.813Z,4.20
2022-11-13T23:18:22.623Z,4.19
2022-11-13T23:21:11.992Z,4.20
2022-11-13T23:23:59.341Z,4.21
2022-11-13T23:26:46.053Z,4.29
2022-11-13T23:29:32.893Z,4.42
2022-11-13T23:32:19.508Z,4.35
2022-11-13T23:35:07.270Z,4.30
2022-11-13T23:37:55.974Z,4.21
2022-11-13T23:40:42.900Z,4.19
2022-11-13T23:44:01.639Z,4.21
2022-11-13T23:46:37.497Z,4.19
2022-11-13T23:49:24.381Z,4.19
2022-11-13T23:52:11.284Z,4.15
2022-11-13T23:54:59.586Z,4.27
2022-11-13T23:57:46.335Z,4.39
